^^
Saratoga-Weather Station Historical Data
Daily Summary for January 13, 2021 Units:  Both    English   Metric
Daily Weekly Monthly Yearly Custom
  High: Low: Average:
Temperature: 23.5 °F /  -4.7 °C 21.9 °F /  -5.6 °C 22.6 °F /  -5.2 °C
Dew Point: 15.4 °F /  -9.2 °C 13.6 °F /  -10.2 °C 14.7 °F /  -9.6 °C
Humidity: 72% 70% 71%
Wind Speed: 11mph /  17.7km/h - 4.5mph /  7.3km/h
Wind Gust: 12mph /  19.3km/h - -
Wind- - East
Pressure: 30.5 in /  1032.5 hPa 30.5 in /  1031.2 hPa -
Precipitation: 0 in /  0.0 mm    
Historical Graphs
 
 
Tabular Data for January 13, 2021
Time Temperature Dew Point Pressure Wind Wind Speed Wind Gust Humidity Rainfall Rate (Hourly) solar
00:02 23.5 °F /  -4.7 °C 15.3 °F /  -9.3 °C 30.5in /  1031.5hPa ESE 4mph /  6.4km/h 11mph /  17.7km/h 70% 0in /  0.0mm 0 W/m2
00:07 23.4 °F /  -4.8 °C 15.1 °F /  -9.4 °C 30.5in /  1031.2hPa ESE 4mph /  6.4km/h 7mph /  11.3km/h 70% 0in /  0.0mm 0 W/m2
00:12 23.4 °F /  -4.8 °C 15.4 °F /  -9.2 °C 30.5in /  1031.5hPa ESE 2.9mph /  4.7km/h 7mph /  11.3km/h 71% 0in /  0.0mm 0 W/m2
00:17 23.4 °F /  -4.8 °C 15.4 °F /  -9.2 °C 30.5in /  1031.5hPa ESE 2mph /  3.2km/h 8mph /  12.9km/h 71% 0in /  0.0mm 0 W/m2
00:22 23.2 °F /  -4.9 °C 15.3 °F /  -9.3 °C 30.5in /  1031.5hPa ENE 8.1mph /  13km/h 10mph /  16.1km/h 71% 0in /  0.0mm 0 W/m2
00:27 23.2 °F /  -4.9 °C 15.3 °F /  -9.3 °C 30.5in /  1031.5hPa NE 4.9mph /  7.9km/h 10mph /  16.1km/h 71% 0in /  0.0mm 0 W/m2
00:32 23.2 °F /  -4.9 °C 15.3 °F /  -9.3 °C 30.5in /  1031.5hPa SE 4.9mph /  7.9km/h 9mph /  14.5km/h 71% 0in /  0.0mm 0 W/m2
00:38 23 °F /  -5 °C 15.1 °F /  -9.4 °C 30.5in /  1031.5hPa East 6mph /  9.7km/h 11mph /  17.7km/h 71% 0in /  0.0mm 0 W/m2
00:43 23 °F /  -5 °C 15.1 °F /  -9.4 °C 30.5in /  1031.8hPa East 6mph /  9.7km/h 6mph /  9.7km/h 71% 0in /  0.0mm 0 W/m2
00:48 22.8 °F /  -5.1 °C 14.9 °F /  -9.5 °C 30.5in /  1031.8hPa SSE 4.9mph /  7.9km/h 5mph /  8km/h 71% 0in /  0.0mm 0 W/m2
00:53 22.6 °F /  -5.2 °C 14.7 °F /  -9.6 °C 30.5in /  1031.8hPa ESE 2.9mph /  4.7km/h 3mph /  4.8km/h 71% 0in /  0.0mm 0 W/m2
00:58 22.6 °F /  -5.2 °C 14.7 °F /  -9.6 °C 30.5in /  1031.8hPa ESE 4mph /  6.4km/h 12mph /  19.3km/h 71% 0in /  0.0mm 0 W/m2
01:03 22.6 °F /  -5.2 °C 14.7 °F /  -9.6 °C 30.5in /  1031.8hPa ENE 6mph /  9.7km/h 10mph /  16.1km/h 71% 0in /  0.0mm 0 W/m2
01:08 22.6 °F /  -5.2 °C 14.9 °F /  -9.5 °C 30.5in /  1031.8hPa East 4mph /  6.4km/h 10mph /  16.1km/h 72% 0in /  0.0mm 0 W/m2
01:13 22.5 °F /  -5.3 °C 14.5 °F /  -9.7 °C 30.5in /  1031.8hPa NE 2.9mph /  4.7km/h 11mph /  17.7km/h 71% 0in /  0.0mm 0 W/m2
01:18 22.5 °F /  -5.3 °C 14.5 °F /  -9.7 °C 30.5in /  1032.2hPa ENE 2.9mph /  4.7km/h 9mph /  14.5km/h 71% 0in /  0.0mm 0 W/m2
01:23 22.5 °F /  -5.3 °C 14.5 °F /  -9.7 °C 30.5in /  1032.2hPa SE 2mph /  3.2km/h 11mph /  17.7km/h 71% 0in /  0.0mm 0 W/m2
01:28 22.5 °F /  -5.3 °C 14.5 °F /  -9.7 °C 30.5in /  1032.2hPa SE 11mph /  17.7km/h 11mph /  17.7km/h 71% 0in /  0.0mm 0 W/m2
01:33 22.5 °F /  -5.3 °C 14.5 °F /  -9.7 °C 30.5in /  1032.2hPa ESE 4mph /  6.4km/h 7mph /  11.3km/h 71% 0in /  0.0mm 0 W/m2
01:38 22.3 °F /  -5.4 °C 14.4 °F /  -9.8 °C 30.5in /  1032.2hPa East 4mph /  6.4km/h 12mph /  19.3km/h 71% 0in /  0.0mm 0 W/m2
01:43 22.3 °F /  -5.4 °C 14.4 °F /  -9.8 °C 30.5in /  1032.2hPa NE 4.9mph /  7.9km/h 11mph /  17.7km/h 71% 0in /  0.0mm 0 W/m2
01:48 22.3 °F /  -5.4 °C 14.4 °F /  -9.8 °C 30.5in /  1032.2hPa ENE 2.9mph /  4.7km/h 9mph /  14.5km/h 71% 0in /  0.0mm 0 W/m2
01:53 22.3 °F /  -5.4 °C 14.4 °F /  -9.8 °C 30.5in /  1032.5hPa East 6mph /  9.7km/h 9mph /  14.5km/h 71% 0in /  0.0mm 0 W/m2
01:58 22.3 °F /  -5.4 °C 14 °F /  -10 °C 30.5in /  1032.5hPa ENE 2.9mph /  4.7km/h 8mph /  12.9km/h 70% 0in /  0.0mm 0 W/m2
02:03 22.3 °F /  -5.4 °C 14 °F /  -10 °C 30.5in /  1032.5hPa ENE 4.9mph /  7.9km/h 8mph /  12.9km/h 70% 0in /  0.0mm 0 W/m2
02:08 22.3 °F /  -5.4 °C 14 °F /  -10 °C 30.5in /  1032.5hPa ESE 2.9mph /  4.7km/h 8mph /  12.9km/h 70% 0in /  0.0mm 0 W/m2
02:13 22.1 °F /  -5.5 °C 13.8 °F /  -10.1 °C 30.5in /  1032.5hPa NE 6mph /  9.7km/h 9mph /  14.5km/h 70% 0in /  0.0mm 0 W/m2
02:18 21.9 °F /  -5.6 °C 13.6 °F /  -10.2 °C 30.5in /  1032.5hPa ESE 2mph /  3.2km/h 10mph /  16.1km/h 70% 0in /  0.0mm 0 W/m2
02:23 21.9 °F /  -5.6 °C 13.6 °F /  -10.2 °C 30.5in /  1032.5hPa ENE 6.9mph /  11.1km/h 7mph /  11.3km/h 70% 0in /  0.0mm 0 W/m2
Juneau County Weather
Compliments of Weather Underground - 4 mb